Time;durP1;ratioP1;P1;durP2;ratioP2;P2;SDS_P1;SDS_P2;PMS_P1;PMS_P2;Temp;Humidity;BMP_temperature;BMP_pressure;BME280_temperature;BME280_humidity;BME280_pressure;Samples;Min_cycle;Max_cycle;Signal;HPM_P1;HPM_P2
2021/01/26 08:26:17;;;;;;;1.83;0.60;;;18.90;42.40;;;;;;5111811;27;20884;-42
2021/01/26 08:28:47;;;;;;;6.85;0.93;;;18.80;43.00;;;;;;5110724;28;20478;-32
2021/01/26 08:31:38;;;;;;;1.02;0.93;;;18.90;43.30;;;;;;5111352;28;20028;-34
2021/01/26 08:34:24;;;;;;;2.38;0.80;;;18.90;43.10;;;;;;5110603;28;20064;-33
2021/01/26 08:37:08;;;;;;;2.20;1.17;;;19.00;42.90;;;;;;5100094;28;20046;-34
2021/01/26 08:39:42;;;;;;;1.50;1.00;;;19.00;42.90;;;;;;5111140;28;20031;-33
2021/01/26 08:42:10;;;;;;;1.23;1.00;;;19.00;42.90;;;;;;5111319;28;20038;-36
2021/01/26 08:44:36;;;;;;;1.40;0.90;;;19.00;42.90;;;;;;5110728;28;20073;-37
2021/01/26 08:47:36;;;;;;;0.75;0.55;;;19.00;42.90;;;;;;5110231;28;20427;-33
2021/01/26 08:50:12;;;;;;;1.00;0.60;;;19.10;43.10;;;;;;5110410;28;20036;-37
2021/01/26 08:52:38;;;;;;;2.17;0.88;;;19.10;42.80;;;;;;5111200;28;20089;-36
2021/01/26 08:55:04;;;;;;;1.65;1.10;;;19.10;43.30;;;;;;5110649;28;20488;-43
2021/01/26 08:57:30;;;;;;;2.22;1.13;;;19.10;42.50;;;;;;5110860;28;20020;-32
2021/01/26 09:00:17;;;;;;;0.77;0.77;;;19.20;42.50;;;;;;5110131;28;20043;-33
2021/01/26 09:02:47;;;;;;;1.83;1.20;;;19.20;42.30;;;;;;5096202;28;20040;-43
2021/01/26 09:05:35;;;;;;;0.85;0.82;;;19.20;42.30;;;;;;5110670;28;20020;-39
2021/01/26 09:08:07;;;;;;;1.42;1.20;;;19.20;42.50;;;;;;5110224;28;20061;-34
2021/01/26 09:10:47;;;;;;;2.22;0.95;;;19.20;43.10;;;;;;5110646;28;20065;-34
2021/01/26 09:13:15;;;;;;;1.38;1.00;;;19.20;42.60;;;;;;5091053;28;20440;-34
2021/01/26 09:15:49;;;;;;;0.75;0.75;;;19.20;42.90;;;;;;5088554;28;20028;-34
2021/01/26 09:18:18;;;;;;;1.00;0.80;;;19.30;42.40;;;;;;5088318;28;20104;-36
2021/01/26 09:20:45;;;;;;;1.58;0.73;;;19.20;42.10;;;;;;5088717;28;20059;-40
2021/01/26 09:23:11;;;;;;;2.17;0.98;;;19.30;43.00;;;;;;5088635;28;20102;-39
2021/01/26 09:25:47;;;;;;;1.67;1.00;;;19.30;42.50;;;;;;5087834;28;20049;-34
2021/01/26 09:28:21;;;;;;;1.40;0.60;;;19.30;42.10;;;;;;5088508;28;20030;-38
2021/01/26 09:30:47;;;;;;;2.75;0.85;;;19.30;42.00;;;;;;5088173;28;20081;-39
2021/01/26 09:33:21;;;;;;;0.88;0.73;;;19.30;43.20;;;;;;5088468;28;20393;-38
2021/01/26 09:35:47;;;;;;;0.90;0.70;;;19.40;43.20;;;;;;5083972;28;20089;-33
2021/01/26 09:38:20;;;;;;;1.83;0.82;;;19.40;43.30;;;;;;5074765;28;20040;-39
2021/01/26 09:41:34;;;;;;;0.98;0.70;;;19.40;42.70;;;;;;5074842;28;20529;-37
2021/01/26 09:44:06;;;;;;;1.90;0.80;;;19.50;43.10;;;;;;5065308;28;20094;-33
2021/01/26 09:46:37;;;;;;;1.23;0.85;;;19.50;42.70;;;;;;5074213;28;20036;-34
2021/01/26 09:49:23;;;;;;;0.80;0.80;;;19.60;42.40;;;;;;5074707;28;20070;-35
2021/01/26 09:52:00;;;;;;;2.35;0.63;;;19.60;42.30;;;;;;5074601;28;20461;-35
2021/01/26 09:54:27;;;;;;;1.05;0.90;;;19.60;42.30;;;;;;5074276;28;20476;-35
2021/01/26 09:56:54;;;;;;;3.25;0.95;;;19.60;42.70;;;;;;5074423;28;20017;-34
2021/01/26 09:59:20;;;;;;;3.65;1.33;;;19.70;42.70;;;;;;5074309;28;20435;-38
2021/01/26 10:01:48;;;;;;;0.93;0.70;;;19.70;42.60;;;;;;5072018;28;20016;-42
2021/01/26 10:04:16;;;;;;;1.98;1.02;;;19.80;43.10;;;;;;5071498;28;20032;-44
2021/01/26 10:06:43;;;;;;;1.70;0.50;;;19.70;43.20;;;;;;5075469;28;20020;-39
2021/01/26 10:09:28;;;;;;;1.42;1.10;;;19.80;43.10;;;;;;5075222;28;20043;-39
2021/01/26 10:12:14;;;;;;;4.55;0.80;;;19.80;42.90;;;;;;5075189;28;20017;-40
2021/01/26 10:14:41;;;;;;;1.35;0.82;;;19.80;43.00;;;;;;5075153;28;20028;-40
2021/01/26 10:17:12;;;;;;;1.55;1.00;;;19.90;42.20;;;;;;5075395;28;20033;-41
2021/01/26 10:19:38;;;;;;;1.75;1.20;;;19.80;41.80;;;;;;5074733;28;20036;-39
2021/01/26 10:22:25;;;;;;;1.88;0.90;;;19.80;42.10;;;;;;5075256;28;20024;-39
2021/01/26 10:24:51;;;;;;;3.45;1.05;;;19.90;42.10;;;;;;5074605;28;20057;-39
2021/01/26 10:27:23;;;;;;;1.67;0.68;;;19.90;42.50;;;;;;5075172;28;20024;-36
2021/01/26 10:29:49;;;;;;;4.03;1.63;;;19.90;43.30;;;;;;5077907;28;20039;-37
2021/01/26 10:32:45;;;;;;;2.28;0.85;;;19.90;42.10;;;;;;5095029;28;20016;-36
2021/01/26 10:35:32;;;;;;;0.93;0.88;;;19.90;41.90;;;;;;5095103;28;20040;-36
2021/01/26 10:38:29;;;;;;;1.02;0.60;;;20.00;42.30;;;;;;5094906;28;20274;-37
2021/01/26 10:41:36;;;;;;;3.90;0.63;;;20.00;42.10;;;;;;5094804;28;20036;-35
2021/01/26 10:44:06;;;;;;;2.50;0.75;;;20.10;42.40;;;;;;5032078;28;20090;-38
2021/01/26 10:46:35;;;;;;;0.88;0.80;;;20.20;42.20;;;;;;5032630;28;20037;-37
2021/01/26 10:49:21;;;;;;;0.77;0.73;;;20.20;42.20;;;;;;5018926;28;20472;-39
2021/01/26 10:51:47;;;;;;;0.77;0.75;;;20.30;41.90;;;;;;5012124;28;20121;-38
2021/01/26 10:54:13;;;;;;;1.20;0.90;;;20.30;41.60;;;;;;5011983;28;20109;-38
2021/01/26 10:56:41;;;;;;;1.27;0.90;;;20.30;41.80;;;;;;5017282;28;20041;-38
2021/01/26 10:59:07;;;;;;;0.73;0.73;;;20.30;41.50;;;;;;5011834;28;20117;-45
2021/01/26 11:01:36;;;;;;;3.70;1.20;;;20.40;41.80;;;;;;5023375;28;20104;-38
2021/01/26 11:04:01;;;;;;;1.08;0.70;;;20.40;41.80;;;;;;5021377;28;20491;-36
2021/01/26 11:06:27;;;;;;;1.90;0.70;;;20.40;41.90;;;;;;5025923;28;20155;-38
2021/01/26 11:08:54;;;;;;;0.80;0.80;;;20.50;42.10;;;;;;5031398;28;20040;-37
2021/01/26 11:11:28;;;;;;;1.55;0.90;;;20.50;41.90;;;;;;5031479;28;20057;-37
2021/01/26 11:13:57;;;;;;;4.32;2.10;;;20.50;41.60;;;;;;5038888;28;20044;-37
2021/01/26 11:16:25;;;;;;;2.28;0.90;;;20.50;41.90;;;;;;5073875;28;20024;-34
2021/01/26 11:18:51;;;;;;;2.25;1.05;;;20.50;41.60;;;;;;5073791;28;20020;-32
2021/01/26 11:21:18;;;;;;;1.20;0.80;;;20.60;42.00;;;;;;5074014;28;20029;-35
2021/01/26 11:23:44;;;;;;;1.50;1.02;;;20.60;42.00;;;;;;5073424;28;20012;-35
2021/01/26 11:26:13;;;;;;;0.80;0.80;;;20.70;41.80;;;;;;5073658;28;20035;-36
2021/01/26 11:28:39;;;;;;;3.45;1.10;;;20.60;41.70;;;;;;5073789;28;20036;-35
2021/01/26 11:31:05;;;;;;;1.20;1.10;;;20.70;42.30;;;;;;5073682;28;20033;-36
2021/01/26 11:33:31;;;;;;;1.15;1.02;;;20.70;42.40;;;;;;5072006;28;20423;-34
2021/01/26 11:35:58;;;;;;;4.72;1.00;;;20.80;42.20;;;;;;5073539;28;20024;-35
2021/01/26 11:38:25;;;;;;;1.08;0.95;;;20.80;42.40;;;;;;5073660;28;20067;-38
2021/01/26 11:40:51;;;;;;;1.00;0.93;;;20.80;42.40;;;;;;5072845;28;20032;-36
2021/01/26 11:43:20;;;;;;;1.75;1.13;;;20.80;42.70;;;;;;5073453;28;20027;-37
2021/01/26 11:45:46;;;;;;;0.90;0.90;;;20.90;42.80;;;;;;5070254;28;20036;-36
2021/01/26 11:48:12;;;;;;;2.97;1.05;;;20.90;42.80;;;;;;5088292;28;20032;-38
2021/01/26 11:50:39;;;;;;;3.15;1.00;;;20.90;42.90;;;;;;5093101;28;20039;-34
2021/01/26 11:53:06;;;;;;;2.67;1.10;;;20.90;42.60;;;;;;5093660;28;20024;-35
2021/01/26 11:55:33;;;;;;;1.45;1.00;;;21.00;42.50;;;;;;5083215;28;20085;-34
2021/01/26 11:58:00;;;;;;;2.55;1.02;;;20.90;42.50;;;;;;5071822;28;20043;-32
2021/01/26 12:00:29;;;;;;;2.08;1.25;;;21.00;42.70;;;;;;5071764;28;20081;-32
2021/01/26 12:02:55;;;;;;;3.00;1.42;;;20.90;42.70;;;;;;5072353;28;20389;-32
2021/01/26 12:05:26;;;;;;;2.45;1.20;;;20.90;42.60;;;;;;5072115;28;20031;-36
2021/01/26 12:07:52;;;;;;;2.55;1.27;;;20.90;42.50;;;;;;5072350;28;20029;-32
2021/01/26 12:10:19;;;;;;;2.22;0.80;;;21.00;42.50;;;;;;5072135;28;20025;-34
2021/01/26 12:12:45;;;;;;;4.43;0.95;;;21.00;42.50;;;;;;5071786;28;20028;-33
